sensor_id;sensor_type;location;lat;lon;timestamp;temperature;humidity
55121;DHT22;41019;48.512;9.036;2023-01-16T00:01:27;4.50;86.40
55121;DHT22;41019;48.512;9.036;2023-01-16T00:03:54;4.60;86.00
55121;DHT22;41019;48.512;9.036;2023-01-16T00:06:20;4.60;86.30
55121;DHT22;41019;48.512;9.036;2023-01-16T00:08:45;4.60;86.30
55121;DHT22;41019;48.512;9.036;2023-01-16T00:11:13;4.60;86.10
55121;DHT22;41019;48.512;9.036;2023-01-16T00:13:39;4.70;85.60
55121;DHT22;41019;48.512;9.036;2023-01-16T00:16:06;4.70;85.50
55121;DHT22;41019;48.512;9.036;2023-01-16T00:18:32;4.80;85.50
55121;DHT22;41019;48.512;9.036;2023-01-16T00:20:58;4.80;85.60
55121;DHT22;41019;48.512;9.036;2023-01-16T00:23:24;4.70;86.20
55121;DHT22;41019;48.512;9.036;2023-01-16T00:25:50;4.70;86.00
55121;DHT22;41019;48.512;9.036;2023-01-16T00:28:16;4.80;85.60
55121;DHT22;41019;48.512;9.036;2023-01-16T00:30:42;4.70;85.90
55121;DHT22;41019;48.512;9.036;2023-01-16T00:33:08;4.70;85.90
55121;DHT22;41019;48.512;9.036;2023-01-16T00:35:35;4.70;86.10
55121;DHT22;41019;48.512;9.036;2023-01-16T00:38:01;4.70;86.20
55121;DHT22;41019;48.512;9.036;2023-01-16T00:40:28;4.70;85.50
55121;DHT22;41019;48.512;9.036;2023-01-16T00:42:54;4.80;85.90
55121;DHT22;41019;48.512;9.036;2023-01-16T00:45:20;4.80;85.80
55121;DHT22;41019;48.512;9.036;2023-01-16T00:47:46;4.80;85.60
55121;DHT22;41019;48.512;9.036;2023-01-16T00:50:12;4.90;85.70
55121;DHT22;41019;48.512;9.036;2023-01-16T00:52:39;4.90;85.60
55121;DHT22;41019;48.512;9.036;2023-01-16T00:55:05;4.90;85.80
55121;DHT22;41019;48.512;9.036;2023-01-16T00:57:31;4.90;85.30
55121;DHT22;41019;48.512;9.036;2023-01-16T00:59:57;4.90;85.30
55121;DHT22;41019;48.512;9.036;2023-01-16T01:02:24;5.00;84.90
55121;DHT22;41019;48.512;9.036;2023-01-16T01:04:49;5.00;84.70
55121;DHT22;41019;48.512;9.036;2023-01-16T01:07:15;5.00;84.90
55121;DHT22;41019;48.512;9.036;2023-01-16T01:09:41;5.00;84.60
55121;DHT22;41019;48.512;9.036;2023-01-16T01:12:08;5.00;85.00
55121;DHT22;41019;48.512;9.036;2023-01-16T01:14:34;5.00;84.90
55121;DHT22;41019;48.512;9.036;2023-01-16T01:17:00;5.00;85.10
55121;DHT22;41019;48.512;9.036;2023-01-16T01:19:25;5.00;85.00
55121;DHT22;41019;48.512;9.036;2023-01-16T01:21:52;5.00;85.30
55121;DHT22;41019;48.512;9.036;2023-01-16T01:24:18;4.90;85.20
55121;DHT22;41019;48.512;9.036;2023-01-16T01:26:44;4.90;85.50
55121;DHT22;41019;48.512;9.036;2023-01-16T01:29:10;4.90;85.70
55121;DHT22;41019;48.512;9.036;2023-01-16T01:31:36;4.90;85.50
55121;DHT22;41019;48.512;9.036;2023-01-16T01:34:02;4.90;85.50
55121;DHT22;41019;48.512;9.036;2023-01-16T01:36:28;4.80;85.70
55121;DHT22;41019;48.512;9.036;2023-01-16T01:38:55;4.80;86.10
55121;DHT22;41019;48.512;9.036;2023-01-16T01:41:20;4.70;86.20
55121;DHT22;41019;48.512;9.036;2023-01-16T01:43:50;4.70;86.50
55121;DHT22;41019;48.512;9.036;2023-01-16T01:51:41;4.70;86.40
55121;DHT22;41019;48.512;9.036;2023-01-16T01:58:00;4.70;87.20
55121;DHT22;41019;48.512;9.036;2023-01-16T02:00:28;4.60;87.70
55121;DHT22;41019;48.512;9.036;2023-01-16T02:03:08;4.50;90.10
55121;DHT22;41019;48.512;9.036;2023-01-16T02:05:46;4.40;89.20
55121;DHT22;41019;48.512;9.036;2023-01-16T02:08:17;4.30;90.10
55121;DHT22;41019;48.512;9.036;2023-01-16T02:10:52;4.30;90.90
55121;DHT22;41019;48.512;9.036;2023-01-16T02:13:19;4.20;91.30
55121;DHT22;41019;48.512;9.036;2023-01-16T02:15:46;4.20;91.30
55121;DHT22;41019;48.512;9.036;2023-01-16T02:18:31;4.10;91.70
55121;DHT22;41019;48.512;9.036;2023-01-16T02:27:25;3.80;92.20
55121;DHT22;41019;48.512;9.036;2023-01-16T02:38:35;3.50;92.60
55121;DHT22;41019;48.512;9.036;2023-01-16T02:44:06;3.40;92.80
55121;DHT22;41019;48.512;9.036;2023-01-16T02:46:55;3.40;93.20
55121;DHT22;41019;48.512;9.036;2023-01-16T02:49:42;3.30;93.10
55121;DHT22;41019;48.512;9.036;2023-01-16T02:52:33;3.30;93.20
55121;DHT22;41019;48.512;9.036;2023-01-16T02:57:38;3.20;93.70
55121;DHT22;41019;48.512;9.036;2023-01-16T03:00:07;3.10;93.70
55121;DHT22;41019;48.512;9.036;2023-01-16T03:02:34;3.10;93.90
55121;DHT22;41019;48.512;9.036;2023-01-16T03:05:00;3.00;94.00
55121;DHT22;41019;48.512;9.036;2023-01-16T03:23:53;2.80;94.60
55121;DHT22;41019;48.512;9.036;2023-01-16T03:26:28;2.80;94.30
55121;DHT22;41019;48.512;9.036;2023-01-16T03:29:02;2.80;94.30
55121;DHT22;41019;48.512;9.036;2023-01-16T03:31:41;2.70;94.40
55121;DHT22;41019;48.512;9.036;2023-01-16T03:39:40;2.70;94.70
55121;DHT22;41019;48.512;9.036;2023-01-16T03:42:22;2.80;94.80
55121;DHT22;41019;48.512;9.036;2023-01-16T03:45:00;2.80;95.00
55121;DHT22;41019;48.512;9.036;2023-01-16T03:47:34;2.80;95.00
55121;DHT22;41019;48.512;9.036;2023-01-16T03:50:07;2.90;94.90
55121;DHT22;41019;48.512;9.036;2023-01-16T03:52:43;2.90;95.20
55121;DHT22;41019;48.512;9.036;2023-01-16T03:55:18;2.90;95.00
55121;DHT22;41019;48.512;9.036;2023-01-16T03:57:53;3.00;95.20
55121;DHT22;41019;48.512;9.036;2023-01-16T04:00:22;3.00;94.80
55121;DHT22;41019;48.512;9.036;2023-01-16T04:05:27;3.00;94.40
55121;DHT22;41019;48.512;9.036;2023-01-16T04:07:56;3.00;94.30
55121;DHT22;41019;48.512;9.036;2023-01-16T04:10:30;3.00;94.00
55121;DHT22;41019;48.512;9.036;2023-01-16T04:13:10;3.00;93.70
55121;DHT22;41019;48.512;9.036;2023-01-16T04:15:42;3.00;93.70
55121;DHT22;41019;48.512;9.036;2023-01-16T04:18:10;3.10;93.50
55121;DHT22;41019;48.512;9.036;2023-01-16T04:20:40;3.10;93.30
55121;DHT22;41019;48.512;9.036;2023-01-16T04:23:07;3.10;93.10
55121;DHT22;41019;48.512;9.036;2023-01-16T04:25:33;3.10;93.30
55121;DHT22;41019;48.512;9.036;2023-01-16T04:27:59;3.10;93.60
55121;DHT22;41019;48.512;9.036;2023-01-16T04:30:24;3.10;94.00
55121;DHT22;41019;48.512;9.036;2023-01-16T04:32:50;3.10;94.20
55121;DHT22;41019;48.512;9.036;2023-01-16T04:35:16;3.20;94.20
55121;DHT22;41019;48.512;9.036;2023-01-16T04:37:42;3.10;94.50
55121;DHT22;41019;48.512;9.036;2023-01-16T04:40:08;3.20;94.60
55121;DHT22;41019;48.512;9.036;2023-01-16T04:42:34;3.10;94.70
55121;DHT22;41019;48.512;9.036;2023-01-16T04:45:02;3.10;94.70
55121;DHT22;41019;48.512;9.036;2023-01-16T04:47:28;3.10;94.00
55121;DHT22;41019;48.512;9.036;2023-01-16T04:49:54;3.10;93.80
55121;DHT22;41019;48.512;9.036;2023-01-16T04:52:19;3.10;94.60
55121;DHT22;41019;48.512;9.036;2023-01-16T04:54:45;3.00;94.70
55121;DHT22;41019;48.512;9.036;2023-01-16T04:57:11;3.00;94.70
55121;DHT22;41019;48.512;9.036;2023-01-16T04:59:37;2.90;94.40
55121;DHT22;41019;48.512;9.036;2023-01-16T05:02:02;2.90;94.80
55121;DHT22;41019;48.512;9.036;2023-01-16T05:04:28;2.80;94.90
55121;DHT22;41019;48.512;9.036;2023-01-16T05:06:54;2.80;94.50
55121;DHT22;41019;48.512;9.036;2023-01-16T05:09:20;2.80;94.80
55121;DHT22;41019;48.512;9.036;2023-01-16T05:11:46;2.70;94.90
55121;DHT22;41019;48.512;9.036;2023-01-16T05:14:12;2.70;94.80
55121;DHT22;41019;48.512;9.036;2023-01-16T05:16:39;2.70;94.90
55121;DHT22;41019;48.512;9.036;2023-01-16T05:19:08;2.60;94.80
55121;DHT22;41019;48.512;9.036;2023-01-16T05:21:35;2.60;94.80
55121;DHT22;41019;48.512;9.036;2023-01-16T05:24:01;2.60;94.60
55121;DHT22;41019;48.512;9.036;2023-01-16T05:26:27;2.60;94.80
55121;DHT22;41019;48.512;9.036;2023-01-16T05:28:53;2.50;94.50
55121;DHT22;41019;48.512;9.036;2023-01-16T05:31:19;2.50;94.60
55121;DHT22;41019;48.512;9.036;2023-01-16T05:33:45;2.50;94.40
55121;DHT22;41019;48.512;9.036;2023-01-16T05:36:11;1.70;94.40
55121;DHT22;41019;48.512;9.036;2023-01-16T05:38:37;2.50;94.70
55121;DHT22;41019;48.512;9.036;2023-01-16T05:41:03;2.50;95.40
55121;DHT22;41019;48.512;9.036;2023-01-16T05:43:30;2.40;95.50
55121;DHT22;41019;48.512;9.036;2023-01-16T05:45:55;2.40;95.30
55121;DHT22;41019;48.512;9.036;2023-01-16T05:48:21;2.40;94.80
55121;DHT22;41019;48.512;9.036;2023-01-16T05:50:48;2.40;94.90
55121;DHT22;41019;48.512;9.036;2023-01-16T05:53:14;2.40;95.00
55121;DHT22;41019;48.512;9.036;2023-01-16T05:55:45;2.30;95.20
55121;DHT22;41019;48.512;9.036;2023-01-16T05:58:13;2.40;95.20
55121;DHT22;41019;48.512;9.036;2023-01-16T06:00:40;2.40;95.00
55121;DHT22;41019;48.512;9.036;2023-01-16T06:03:07;2.40;95.20
55121;DHT22;41019;48.512;9.036;2023-01-16T06:05:33;2.40;95.10
55121;DHT22;41019;48.512;9.036;2023-01-16T06:08:00;2.30;95.00
55121;DHT22;41019;48.512;9.036;2023-01-16T06:10:26;2.40;94.90
55121;DHT22;41019;48.512;9.036;2023-01-16T06:12:53;2.30;95.10
55121;DHT22;41019;48.512;9.036;2023-01-16T06:15:19;2.40;95.00
55121;DHT22;41019;48.512;9.036;2023-01-16T06:17:45;2.40;94.60
55121;DHT22;41019;48.512;9.036;2023-01-16T06:20:12;2.40;94.90
55121;DHT22;41019;48.512;9.036;2023-01-16T06:22:38;2.40;95.00
55121;DHT22;41019;48.512;9.036;2023-01-16T06:25:04;2.40;95.00
55121;DHT22;41019;48.512;9.036;2023-01-16T06:27:30;2.40;94.80
55121;DHT22;41019;48.512;9.036;2023-01-16T06:29:58;2.40;95.10
55121;DHT22;41019;48.512;9.036;2023-01-16T06:32:24;2.40;95.10
55121;DHT22;41019;48.512;9.036;2023-01-16T06:34:50;2.40;95.20
55121;DHT22;41019;48.512;9.036;2023-01-16T06:37:16;2.40;95.30
55121;DHT22;41019;48.512;9.036;2023-01-16T06:39:42;2.30;95.30
55121;DHT22;41019;48.512;9.036;2023-01-16T06:42:08;2.30;95.40
55121;DHT22;41019;48.512;9.036;2023-01-16T06:44:35;2.40;95.20
55121;DHT22;41019;48.512;9.036;2023-01-16T06:47:01;2.40;95.20
55121;DHT22;41019;48.512;9.036;2023-01-16T06:49:28;2.40;95.50
55121;DHT22;41019;48.512;9.036;2023-01-16T06:51:53;2.40;95.40
55121;DHT22;41019;48.512;9.036;2023-01-16T06:54:19;2.40;95.30
55121;DHT22;41019;48.512;9.036;2023-01-16T06:56:45;2.40;94.90
55121;DHT22;41019;48.512;9.036;2023-01-16T06:59:11;2.40;94.80
55121;DHT22;41019;48.512;9.036;2023-01-16T07:01:37;2.40;95.00
55121;DHT22;41019;48.512;9.036;2023-01-16T07:04:03;2.40;95.00
55121;DHT22;41019;48.512;9.036;2023-01-16T07:06:29;2.40;95.20
55121;DHT22;41019;48.512;9.036;2023-01-16T07:08:55;2.40;95.20
55121;DHT22;41019;48.512;9.036;2023-01-16T07:11:20;2.40;95.60
55121;DHT22;41019;48.512;9.036;2023-01-16T07:13:46;2.40;94.80
55121;DHT22;41019;48.512;9.036;2023-01-16T07:16:14;2.40;95.20
55121;DHT22;41019;48.512;9.036;2023-01-16T07:18:59;2.40;94.70
55121;DHT22;41019;48.512;9.036;2023-01-16T07:22:00;2.50;94.70
55121;DHT22;41019;48.512;9.036;2023-01-16T07:24:45;2.50;94.90
55121;DHT22;41019;48.512;9.036;2023-01-16T07:27:11;2.50;94.90
55121;DHT22;41019;48.512;9.036;2023-01-16T07:29:37;2.50;94.70
55121;DHT22;41019;48.512;9.036;2023-01-16T07:32:04;2.50;95.30
55121;DHT22;41019;48.512;9.036;2023-01-16T07:34:30;2.50;95.00
55121;DHT22;41019;48.512;9.036;2023-01-16T07:36:56;2.60;94.00
55121;DHT22;41019;48.512;9.036;2023-01-16T07:39:22;2.60;94.00
55121;DHT22;41019;48.512;9.036;2023-01-16T07:41:48;2.70;94.20
55121;DHT22;41019;48.512;9.036;2023-01-16T07:44:17;2.80;93.90
55121;DHT22;41019;48.512;9.036;2023-01-16T07:46:43;2.80;93.20
55121;DHT22;41019;48.512;9.036;2023-01-16T07:49:09;2.90;92.80
55121;DHT22;41019;48.512;9.036;2023-01-16T07:51:38;3.00;92.30
55121;DHT22;41019;48.512;9.036;2023-01-16T07:54:05;3.10;92.40
55121;DHT22;41019;48.512;9.036;2023-01-16T07:56:31;3.10;92.50
55121;DHT22;41019;48.512;9.036;2023-01-16T07:58:57;3.20;92.50
55121;DHT22;41019;48.512;9.036;2023-01-16T08:01:23;3.20;91.80
55121;DHT22;41019;48.512;9.036;2023-01-16T08:03:48;3.30;91.80
55121;DHT22;41019;48.512;9.036;2023-01-16T08:06:14;3.30;91.40
55121;DHT22;41019;48.512;9.036;2023-01-16T08:08:40;3.40;91.20
55121;DHT22;41019;48.512;9.036;2023-01-16T08:11:06;3.40;91.20
55121;DHT22;41019;48.512;9.036;2023-01-16T08:13:51;3.50;90.80
55121;DHT22;41019;48.512;9.036;2023-01-16T08:16:17;3.50;91.00
55121;DHT22;41019;48.512;9.036;2023-01-16T08:18:42;3.50;91.80
55121;DHT22;41019;48.512;9.036;2023-01-16T08:21:08;3.60;92.00
55121;DHT22;41019;48.512;9.036;2023-01-16T08:23:34;3.60;91.80
55121;DHT22;41019;48.512;9.036;2023-01-16T08:26:00;3.60;91.10
55121;DHT22;41019;48.512;9.036;2023-01-16T08:28:26;3.70;91.60
55121;DHT22;41019;48.512;9.036;2023-01-16T08:30:52;3.70;91.40
55121;DHT22;41019;48.512;9.036;2023-01-16T08:33:18;3.70;92.10
55121;DHT22;41019;48.512;9.036;2023-01-16T08:35:44;3.70;90.70
55121;DHT22;41019;48.512;9.036;2023-01-16T08:38:10;3.80;91.10
55121;DHT22;41019;48.512;9.036;2023-01-16T08:40:35;3.80;90.80
55121;DHT22;41019;48.512;9.036;2023-01-16T08:43:01;3.80;91.40
55121;DHT22;41019;48.512;9.036;2023-01-16T08:45:46;3.90;91.90
55121;DHT22;41019;48.512;9.036;2023-01-16T08:48:30;3.90;90.90
55121;DHT22;41019;48.512;9.036;2023-01-16T08:51:18;3.90;90.90
55121;DHT22;41019;48.512;9.036;2023-01-16T08:53:53;4.00;91.50
55121;DHT22;41019;48.512;9.036;2023-01-16T08:56:21;4.00;90.70
55121;DHT22;41019;48.512;9.036;2023-01-16T08:58:47;4.10;90.60
55121;DHT22;41019;48.512;9.036;2023-01-16T09:01:13;4.20;87.90
55121;DHT22;41019;48.512;9.036;2023-01-16T09:03:39;4.20;88.70
55121;DHT22;41019;48.512;9.036;2023-01-16T09:06:05;4.20;90.50
55121;DHT22;41019;48.512;9.036;2023-01-16T09:08:31;4.30;89.50
55121;DHT22;41019;48.512;9.036;2023-01-16T09:10:57;4.40;90.40
55121;DHT22;41019;48.512;9.036;2023-01-16T09:13:41;4.40;90.10
55121;DHT22;41019;48.512;9.036;2023-01-16T09:16:19;4.40;90.40
55121;DHT22;41019;48.512;9.036;2023-01-16T09:18:45;4.50;85.50
55121;DHT22;41019;48.512;9.036;2023-01-16T09:21:11;4.60;87.40
55121;DHT22;41019;48.512;9.036;2023-01-16T09:23:37;4.60;87.90
55121;DHT22;41019;48.512;9.036;2023-01-16T09:26:03;4.60;87.80
55121;DHT22;41019;48.512;9.036;2023-01-16T09:28:30;4.70;87.70
55121;DHT22;41019;48.512;9.036;2023-01-16T09:30:55;4.70;90.70
55121;DHT22;41019;48.512;9.036;2023-01-16T09:33:21;4.70;90.40
55121;DHT22;41019;48.512;9.036;2023-01-16T09:35:47;4.80;90.80
55121;DHT22;41019;48.512;9.036;2023-01-16T09:38:13;4.90;88.30
55121;DHT22;41019;48.512;9.036;2023-01-16T09:40:46;4.90;88.10
55121;DHT22;41019;48.512;9.036;2023-01-16T09:43:40;5.00;87.80
55121;DHT22;41019;48.512;9.036;2023-01-16T09:46:25;5.10;89.90
55121;DHT22;41019;48.512;9.036;2023-01-16T09:49:05;5.20;85.10
55121;DHT22;41019;48.512;9.036;2023-01-16T09:51:39;5.30;84.90
55121;DHT22;41019;48.512;9.036;2023-01-16T09:54:19;5.40;85.70
55121;DHT22;41019;48.512;9.036;2023-01-16T09:57:13;5.50;84.10
55121;DHT22;41019;48.512;9.036;2023-01-16T10:00:02;5.50;82.80
55121;DHT22;41019;48.512;9.036;2023-01-16T10:02:36;5.60;84.00
55121;DHT22;41019;48.512;9.036;2023-01-16T10:05:04;5.60;83.10
55121;DHT22;41019;48.512;9.036;2023-01-16T10:10:44;5.70;78.90
55121;DHT22;41019;48.512;9.036;2023-01-16T10:27:05;6.00;75.40
55121;DHT22;41019;48.512;9.036;2023-01-16T10:29:52;6.10;76.00
55121;DHT22;41019;48.512;9.036;2023-01-16T10:32:37;6.10;75.70
55121;DHT22;41019;48.512;9.036;2023-01-16T10:35:21;6.10;75.20
55121;DHT22;41019;48.512;9.036;2023-01-16T10:37:48;6.20;76.10
55121;DHT22;41019;48.512;9.036;2023-01-16T10:40:24;6.30;76.30
55121;DHT22;41019;48.512;9.036;2023-01-16T10:43:13;6.30;76.50
55121;DHT22;41019;48.512;9.036;2023-01-16T10:46:15;6.50;75.90
55121;DHT22;41019;48.512;9.036;2023-01-16T10:49:01;6.60;75.70
55121;DHT22;41019;48.512;9.036;2023-01-16T10:51:46;6.70;74.50
55121;DHT22;41019;48.512;9.036;2023-01-16T10:54:12;6.70;75.30
55121;DHT22;41019;48.512;9.036;2023-01-16T10:56:38;6.80;74.50
55121;DHT22;41019;48.512;9.036;2023-01-16T10:59:11;6.90;74.50
55121;DHT22;41019;48.512;9.036;2023-01-16T11:01:40;6.90;75.60
55121;DHT22;41019;48.512;9.036;2023-01-16T11:04:10;6.90;77.60
55121;DHT22;41019;48.512;9.036;2023-01-16T11:06:36;6.90;78.50
55121;DHT22;41019;48.512;9.036;2023-01-16T11:11:42;6.40;78.30
55121;DHT22;41019;48.512;9.036;2023-01-16T11:14:45;6.80;78.80
55121;DHT22;41019;48.512;9.036;2023-01-16T11:17:40;6.80;79.20
55121;DHT22;41019;48.512;9.036;2023-01-16T11:20:36;6.80;79.00
55121;DHT22;41019;48.512;9.036;2023-01-16T11:23:18;6.80;78.70
55121;DHT22;41019;48.512;9.036;2023-01-16T11:25:48;6.80;79.50
55121;DHT22;41019;48.512;9.036;2023-01-16T11:28:34;6.80;80.10
55121;DHT22;41019;48.512;9.036;2023-01-16T11:31:06;6.80;81.10
55121;DHT22;41019;48.512;9.036;2023-01-16T11:33:44;6.90;81.20
55121;DHT22;41019;48.512;9.036;2023-01-16T11:36:16;6.90;82.30
55121;DHT22;41019;48.512;9.036;2023-01-16T11:38:45;6.90;82.60
55121;DHT22;41019;48.512;9.036;2023-01-16T11:41:24;6.90;82.00
55121;DHT22;41019;48.512;9.036;2023-01-16T11:44:28;7.00;81.30
55121;DHT22;41019;48.512;9.036;2023-01-16T11:47:17;7.00;81.80
55121;DHT22;41019;48.512;9.036;2023-01-16T11:52:47;7.10;82.00
55121;DHT22;41019;48.512;9.036;2023-01-16T11:55:15;7.10;82.10
55121;DHT22;41019;48.512;9.036;2023-01-16T12:03:08;7.30;81.20
55121;DHT22;41019;48.512;9.036;2023-01-16T12:08:44;7.40;80.90
55121;DHT22;41019;48.512;9.036;2023-01-16T12:11:57;7.50;81.10
55121;DHT22;41019;48.512;9.036;2023-01-16T12:16:58;7.60;80.80
55121;DHT22;41019;48.512;9.036;2023-01-16T12:30:56;7.90;80.80
55121;DHT22;41019;48.512;9.036;2023-01-16T12:42:50;8.00;80.20
55121;DHT22;41019;48.512;9.036;2023-01-16T12:45:45;8.10;78.40
55121;DHT22;41019;48.512;9.036;2023-01-16T12:59:36;8.40;78.90
55121;DHT22;41019;48.512;9.036;2023-01-16T13:04:44;8.30;77.90
55121;DHT22;41019;48.512;9.036;2023-01-16T13:07:16;8.20;78.10
55121;DHT22;41019;48.512;9.036;2023-01-16T13:09:52;8.20;77.90
55121;DHT22;41019;48.512;9.036;2023-01-16T13:12:41;8.30;77.80
55121;DHT22;41019;48.512;9.036;2023-01-16T13:15:34;8.30;77.80
55121;DHT22;41019;48.512;9.036;2023-01-16T13:18:21;8.10;77.40
55121;DHT22;41019;48.512;9.036;2023-01-16T13:20:55;9.30;77.70
55121;DHT22;41019;48.512;9.036;2023-01-16T13:23:37;8.60;76.30
55121;DHT22;41019;48.512;9.036;2023-01-16T13:26:09;8.70;75.50
55121;DHT22;41019;48.512;9.036;2023-01-16T13:29:06;8.70;75.00
55121;DHT22;41019;48.512;9.036;2023-01-16T13:31:56;8.80;75.30
55121;DHT22;41019;48.512;9.036;2023-01-16T13:34:22;8.80;74.80
55121;DHT22;41019;48.512;9.036;2023-01-16T13:42:31;8.80;73.90
55121;DHT22;41019;48.512;9.036;2023-01-16T13:45:14;8.80;73.10
55121;DHT22;41019;48.512;9.036;2023-01-16T13:48:00;8.70;73.60
55121;DHT22;41019;48.512;9.036;2023-01-16T13:50:31;8.60;73.50
55121;DHT22;41019;48.512;9.036;2023-01-16T13:53:09;8.60;73.00
55121;DHT22;41019;48.512;9.036;2023-01-16T13:55:39;8.50;73.90
55121;DHT22;41019;48.512;9.036;2023-01-16T13:58:21;8.40;73.50
55121;DHT22;41019;48.512;9.036;2023-01-16T14:01:00;8.30;73.90
55121;DHT22;41019;48.512;9.036;2023-01-16T14:03:29;8.20;74.90
55121;DHT22;41019;48.512;9.036;2023-01-16T14:11:57;8.10;74.90
55121;DHT22;41019;48.512;9.036;2023-01-16T14:14:31;8.20;75.20
55121;DHT22;41019;48.512;9.036;2023-01-16T14:17:18;8.10;74.60
55121;DHT22;41019;48.512;9.036;2023-01-16T14:22:34;8.00;74.80
55121;DHT22;41019;48.512;9.036;2023-01-16T14:25:06;8.00;74.20
55121;DHT22;41019;48.512;9.036;2023-01-16T14:27:41;8.00;74.50
55121;DHT22;41019;48.512;9.036;2023-01-16T14:30:19;7.90;75.10
55121;DHT22;41019;48.512;9.036;2023-01-16T14:32:52;7.90;75.50
55121;DHT22;41019;48.512;9.036;2023-01-16T14:35:26;7.90;75.40
55121;DHT22;41019;48.512;9.036;2023-01-16T14:37:59;7.90;75.70
55121;DHT22;41019;48.512;9.036;2023-01-16T14:40:35;7.90;76.00
55121;DHT22;41019;48.512;9.036;2023-01-16T14:43:28;7.80;75.60
55121;DHT22;41019;48.512;9.036;2023-01-16T14:53:03;7.80;76.30
55121;DHT22;41019;48.512;9.036;2023-01-16T14:56:05;7.80;76.90
55121;DHT22;41019;48.512;9.036;2023-01-16T14:58:50;7.70;77.40
55121;DHT22;41019;48.512;9.036;2023-01-16T15:01:31;7.70;76.50
55121;DHT22;41019;48.512;9.036;2023-01-16T15:04:21;7.60;76.90
55121;DHT22;41019;48.512;9.036;2023-01-16T15:06:54;7.70;77.30
55121;DHT22;41019;48.512;9.036;2023-01-16T15:09:21;7.50;77.50
55121;DHT22;41019;48.512;9.036;2023-01-16T15:11:56;7.40;77.80
55121;DHT22;41019;48.512;9.036;2023-01-16T15:14:23;7.40;78.10
55121;DHT22;41019;48.512;9.036;2023-01-16T15:22:47;7.30;78.80
55121;DHT22;41019;48.512;9.036;2023-01-16T15:27:55;7.50;78.70
55121;DHT22;41019;48.512;9.036;2023-01-16T15:30:23;7.40;78.70
55121;DHT22;41019;48.512;9.036;2023-01-16T15:32:58;7.40;80.10
55121;DHT22;41019;48.512;9.036;2023-01-16T15:35:44;7.40;82.50
55121;DHT22;41019;48.512;9.036;2023-01-16T15:38:19;7.30;85.20
55121;DHT22;41019;48.512;9.036;2023-01-16T15:40:52;7.20;85.60
55121;DHT22;41019;48.512;9.036;2023-01-16T15:43:20;7.10;85.70
55121;DHT22;41019;48.512;9.036;2023-01-16T15:51:52;6.80;89.60
55121;DHT22;41019;48.512;9.036;2023-01-16T15:54:18;6.70;91.10
55121;DHT22;41019;48.512;9.036;2023-01-16T15:56:47;6.70;91.60
55121;DHT22;41019;48.512;9.036;2023-01-16T15:59:32;6.60;91.60
55121;DHT22;41019;48.512;9.036;2023-01-16T16:02:15;6.40;92.00
55121;DHT22;41019;48.512;9.036;2023-01-16T16:04:42;6.40;92.80
55121;DHT22;41019;48.512;9.036;2023-01-16T16:07:11;6.30;93.50
55121;DHT22;41019;48.512;9.036;2023-01-16T16:09:38;6.30;93.70
55121;DHT22;41019;48.512;9.036;2023-01-16T16:12:05;6.60;94.60
55121;DHT22;41019;48.512;9.036;2023-01-16T16:14:33;6.10;94.30
55121;DHT22;41019;48.512;9.036;2023-01-16T16:23:15;6.00;94.90
55121;DHT22;41019;48.512;9.036;2023-01-16T16:25:59;6.10;95.00
55121;DHT22;41019;48.512;9.036;2023-01-16T16:28:33;5.90;95.10
55121;DHT22;41019;48.512;9.036;2023-01-16T16:33:59;5.90;94.70
55121;DHT22;41019;48.512;9.036;2023-01-16T16:36:26;5.90;95.10
55121;DHT22;41019;48.512;9.036;2023-01-16T16:38:55;5.90;95.10
55121;DHT22;41019;48.512;9.036;2023-01-16T16:44:34;5.90;95.20
55121;DHT22;41019;48.512;9.036;2023-01-16T16:47:00;5.90;94.80
55121;DHT22;41019;48.512;9.036;2023-01-16T16:49:29;5.90;95.00
55121;DHT22;41019;48.512;9.036;2023-01-16T16:54:59;5.90;95.00
55121;DHT22;41019;48.512;9.036;2023-01-16T16:57:40;6.00;95.00
55121;DHT22;41019;48.512;9.036;2023-01-16T17:00:15;5.90;95.10
55121;DHT22;41019;48.512;9.036;2023-01-16T17:02:44;5.90;95.10
55121;DHT22;41019;48.512;9.036;2023-01-16T17:05:15;5.90;95.10
55121;DHT22;41019;48.512;9.036;2023-01-16T17:07:47;5.90;95.40
55121;DHT22;41019;48.512;9.036;2023-01-16T17:10:16;5.90;95.30
55121;DHT22;41019;48.512;9.036;2023-01-16T17:12:42;5.90;95.70
55121;DHT22;41019;48.512;9.036;2023-01-16T17:15:09;5.80;95.60
55121;DHT22;41019;48.512;9.036;2023-01-16T17:17:40;5.80;95.60
55121;DHT22;41019;48.512;9.036;2023-01-16T17:20:19;5.80;95.70
55121;DHT22;41019;48.512;9.036;2023-01-16T17:22:46;5.80;96.00
55121;DHT22;41019;48.512;9.036;2023-01-16T17:25:16;5.80;95.90
55121;DHT22;41019;48.512;9.036;2023-01-16T17:27:51;5.80;95.50
55121;DHT22;41019;48.512;9.036;2023-01-16T17:30:18;5.70;95.60
55121;DHT22;41019;48.512;9.036;2023-01-16T17:32:55;5.70;95.90
55121;DHT22;41019;48.512;9.036;2023-01-16T17:35:22;5.70;95.50
55121;DHT22;41019;48.512;9.036;2023-01-16T17:37:49;5.90;95.90
55121;DHT22;41019;48.512;9.036;2023-01-16T17:40:15;5.70;95.30
55121;DHT22;41019;48.512;9.036;2023-01-16T17:42:40;5.60;95.40
55121;DHT22;41019;48.512;9.036;2023-01-16T17:45:41;5.60;95.10
55121;DHT22;41019;48.512;9.036;2023-01-16T17:48:21;5.70;95.10
55121;DHT22;41019;48.512;9.036;2023-01-16T17:50:47;5.60;95.00
55121;DHT22;41019;48.512;9.036;2023-01-16T17:53:20;6.40;95.30
55121;DHT22;41019;48.512;9.036;2023-01-16T17:55:48;5.60;95.10
55121;DHT22;41019;48.512;9.036;2023-01-16T17:58:29;5.60;94.80
55121;DHT22;41019;48.512;9.036;2023-01-16T18:01:00;5.60;94.80
55121;DHT22;41019;48.512;9.036;2023-01-16T18:03:31;5.60;94.90
55121;DHT22;41019;48.512;9.036;2023-01-16T18:06:02;5.60;94.80
55121;DHT22;41019;48.512;9.036;2023-01-16T18:08:30;5.60;95.00
55121;DHT22;41019;48.512;9.036;2023-01-16T18:10:58;5.60;94.70
55121;DHT22;41019;48.512;9.036;2023-01-16T18:13:24;5.60;94.80
55121;DHT22;41019;48.512;9.036;2023-01-16T18:16:14;5.60;94.60
55121;DHT22;41019;48.512;9.036;2023-01-16T18:18:59;5.60;94.40
55121;DHT22;41019;48.512;9.036;2023-01-16T18:21:25;5.60;94.40
55121;DHT22;41019;48.512;9.036;2023-01-16T18:24:09;5.60;94.60
55121;DHT22;41019;48.512;9.036;2023-01-16T18:26:35;5.60;94.20
55121;DHT22;41019;48.512;9.036;2023-01-16T18:29:01;5.60;93.80
55121;DHT22;41019;48.512;9.036;2023-01-16T18:31:27;5.60;93.90
55121;DHT22;41019;48.512;9.036;2023-01-16T18:33:53;5.60;93.90
55121;DHT22;41019;48.512;9.036;2023-01-16T18:36:20;5.60;93.60
55121;DHT22;41019;48.512;9.036;2023-01-16T18:38:47;5.60;93.60
55121;DHT22;41019;48.512;9.036;2023-01-16T18:41:31;5.60;93.40
55121;DHT22;41019;48.512;9.036;2023-01-16T18:44:16;5.60;93.30
55121;DHT22;41019;48.512;9.036;2023-01-16T18:47:01;5.60;93.20
55121;DHT22;41019;48.512;9.036;2023-01-16T18:49:59;5.60;93.20
55121;DHT22;41019;48.512;9.036;2023-01-16T18:52:44;5.60;93.20
55121;DHT22;41019;48.512;9.036;2023-01-16T18:55:28;5.60;93.20
55121;DHT22;41019;48.512;9.036;2023-01-16T18:58:17;5.60;92.90
55121;DHT22;41019;48.512;9.036;2023-01-16T19:01:02;5.60;92.80
55121;DHT22;41019;48.512;9.036;2023-01-16T19:03:47;5.60;92.80
55121;DHT22;41019;48.512;9.036;2023-01-16T19:06:12;5.60;92.80
55121;DHT22;41019;48.512;9.036;2023-01-16T19:08:41;5.60;92.70